createdAt,value
2023-01-26T00:13:58.558Z,1523.96387
2023-01-26T00:29:01.372Z,1288.70725
2023-01-26T00:44:03.574Z,1052.82788
2023-01-26T00:59:05.769Z,1032.09386
2023-01-26T01:14:08.029Z,872.38028
2023-01-26T01:29:10.348Z,815.09266
2023-01-26T01:44:12.816Z,817.44706
2023-01-26T01:59:15.045Z,768.18725
2023-01-26T02:14:17.346Z,713.21262
2023-01-26T02:29:19.515Z,715.37824
2023-01-26T02:44:21.743Z,724.17387
2023-01-26T02:59:23.999Z,724.91661
2023-01-26T03:14:26.208Z,771.53812
2023-01-26T03:29:28.423Z,768.60452
2023-01-26T03:44:30.684Z,780.0446
2023-01-26T03:59:32.915Z,862.80538
2023-01-26T04:14:38.168Z,831.37535
2023-01-26T04:29:52.644Z,834.31653
2023-01-26T04:44:54.929Z,817.91957
2023-01-26T04:59:57.167Z,817.91957
2023-01-26T05:14:59.571Z,833.33383
2023-01-26T05:30:02.362Z,801.70021
2023-01-26T05:45:04.696Z,828.45483
2023-01-26T06:00:06.899Z,878.33693
2023-01-26T06:15:10.505Z,873.45729
2023-01-26T06:30:13.152Z,929.08783
2023-01-26T06:45:15.487Z,886.59198
2023-01-26T07:00:17.759Z,974.51841
2023-01-26T07:15:20.117Z,951.58086
2023-01-26T07:30:22.320Z,977.21044
2023-01-26T07:45:24.968Z,996.47937
2023-01-26T08:00:27.264Z,991.59125
2023-01-26T08:15:29.430Z,1009.99336
2023-01-26T08:30:31.678Z,1023.87894
2023-01-26T08:45:34.026Z,1047.37282
2023-01-26T09:00:36.320Z,1054.39692
2023-01-26T09:15:38.619Z,1117.69403
2023-01-26T09:30:40.957Z,1132.90683
2023-01-26T09:45:43.252Z,1164.60956
2023-01-26T10:00:45.479Z,1247.79592
2023-01-26T10:15:47.777Z,1293.41916
2023-01-26T10:30:50.143Z,1311.39995
2023-01-26T10:45:52.627Z,1379.14281
2023-01-26T11:00:54.815Z,1563.5364
2023-01-26T11:15:57.080Z,1670.60262
2023-01-26T11:30:59.409Z,1797.96746
2023-01-26T11:46:01.762Z,1705.84739
2023-01-26T12:01:04.029Z,1721.41169
2023-01-26T12:16:06.196Z,1749.07342
2023-01-26T12:31:08.629Z,1707.90635
2023-01-26T12:46:11.004Z,1633.00684
2023-01-26T13:01:13.395Z,1724.55869
2023-01-26T13:16:15.704Z,1816.43182
2023-01-26T13:31:17.933Z,1849.6737
2023-01-26T13:46:21.444Z,1647.26475
2023-01-26T14:01:23.760Z,1398.22186
2023-01-26T14:16:26.561Z,1368.47246
2023-01-26T14:31:29.097Z,1218.77742
2023-01-26T14:46:31.351Z,1157.93831
2023-01-26T15:01:33.557Z,1234.73
2023-01-26T15:16:35.786Z,1216.6815
2023-01-26T15:31:38.154Z,1154.16037
2023-01-26T15:46:40.497Z,1198.13768
2023-01-26T16:01:42.937Z,1188.07775
2023-01-26T16:16:45.485Z,1035.11389
2023-01-26T16:31:47.847Z,1106.33358
2023-01-26T16:46:50.286Z,1321.19565
2023-01-26T17:01:52.593Z,1653.03788
2023-01-26T17:16:54.804Z,1903.16122
2023-01-26T17:31:57.118Z,2148.82359
2023-01-26T17:46:59.427Z,2256.77882
2023-01-26T18:02:01.778Z,2350.49885
2023-01-26T18:17:04.008Z,2458.73205
2023-01-26T18:32:06.306Z,2579.76351
2023-01-26T18:47:08.568Z,2750.24348
2023-01-26T19:02:10.790Z,2841.36599
2023-01-26T19:17:13.132Z,3031.60198
2023-01-26T19:32:15.413Z,3210.43724
2023-01-26T19:47:17.667Z,3290.69816
2023-01-26T20:02:20.074Z,3333.33382
2023-01-26T20:17:22.327Z,3395.32142
2023-01-26T20:32:24.566Z,3642.21414
2023-01-26T20:47:26.848Z,3591.37105
2023-01-26T21:02:34.295Z,3814.01667
2023-01-26T21:17:36.572Z,3826.91057
2023-01-26T21:32:44.017Z,4101.44978
2023-01-26T21:47:46.312Z,4252.44228
2023-01-26T22:02:48.591Z,3952.51447
2023-01-26T22:17:50.837Z,4069.0156
2023-01-26T22:32:53.164Z,4014.1849
2023-01-26T22:47:55.401Z,3876.71283
2023-01-26T23:02:57.593Z,3941.50468
2023-01-26T23:18:00.023Z,3814.01667
2023-01-26T23:33:02.211Z,3783.42296
2023-01-26T23:48:04.537Z,3834.68884
